Time;durP1;ratioP1;P1;durP2;ratioP2;P2;SDS_P1;SDS_P2;PMS_P1;PMS_P2;Temp;Humidity;BMP_temperature;BMP_pressure;BME280_temperature;BME280_humidity;BME280_pressure;Samples;Min_cycle;Max_cycle;Signal;HPM_P1;HPM_P2
2021/01/20 00:02:03;;;;;;;15.60;8.40;;;;;;;5.71;93.84;99720.53;5045655;28;20073;-54
2021/01/20 00:04:31;;;;;;;13.85;7.50;;;;;;;5.72;94.14;99711.59;5047768;28;20040;-54
2021/01/20 00:06:57;;;;;;;16.40;9.07;;;;;;;5.69;94.07;99714.56;5047162;28;20405;-56
2021/01/20 00:09:24;;;;;;;16.60;9.15;;;;;;;5.77;94.15;99711.09;5039961;28;20049;-52
2021/01/20 00:11:51;;;;;;;18.58;9.07;;;;;;;5.71;93.93;99712.56;5042332;28;20041;-52
2021/01/20 00:14:18;;;;;;;17.08;9.02;;;;;;;5.69;94.57;99704.78;5048946;28;20048;-54
2021/01/20 00:16:46;;;;;;;15.80;8.27;;;;;;;5.72;94.57;99695.69;5044858;28;20655;-53
2021/01/20 00:19:14;;;;;;;18.77;9.93;;;;;;;5.67;94.15;99690.88;5044552;28;20506;-53
2021/01/20 00:21:40;;;;;;;14.15;7.82;;;;;;;5.70;94.37;99692.41;5046696;28;20056;-53
2021/01/20 00:24:08;;;;;;;16.10;7.47;;;;;;;5.66;94.46;99683.09;5047931;28;20507;-53
2021/01/20 00:26:35;;;;;;;15.65;8.40;;;;;;;5.72;93.86;99673.69;5047695;28;20060;-53
2021/01/20 00:29:02;;;;;;;14.13;8.20;;;;;;;5.72;93.99;99668.38;5043629;28;20063;-53
2021/01/20 00:31:29;;;;;;;14.15;7.72;;;;;;;5.75;93.82;99671.53;5048245;28;20038;-53
2021/01/20 00:34:00;;;;;;;16.02;8.00;;;;;;;5.67;94.36;99684.75;5044020;28;20310;-53
2021/01/20 00:36:28;;;;;;;13.77;7.68;;;;;;;5.69;94.62;99677.47;5047164;28;20039;-51
2021/01/20 00:38:56;;;;;;;18.10;8.63;;;;;;;5.76;94.60;99678.50;5044133;28;20106;-52
2021/01/20 01:02:33;;;;;;;13.82;8.35;;;;;;;5.63;94.99;99667.53;5050392;28;20045;-51
2021/01/20 01:05:03;;;;;;;14.52;8.43;;;;;;;5.69;95.02;99664.22;5048249;28;20068;-52
2021/01/20 01:07:30;;;;;;;14.50;8.82;;;;;;;5.82;94.49;99655.84;5047235;28;20068;-54
2021/01/20 01:09:59;;;;;;;16.02;8.25;;;;;;;5.90;94.42;99666.47;5044318;28;20044;-50
2021/01/20 01:12:26;;;;;;;17.15;8.30;;;;;;;5.86;94.08;99652.69;5025433;28;20445;-51
2021/01/20 01:14:53;;;;;;;13.80;7.97;;;;;;;5.89;93.75;99645.44;5046006;28;20433;-51
2021/01/20 01:17:20;;;;;;;14.60;8.35;;;;;;;5.89;93.66;99640.13;5046037;28;20044;-53
2021/01/20 01:19:48;;;;;;;13.35;8.60;;;;;;;5.95;93.78;99652.72;5046589;28;20060;-55
2021/01/20 01:22:15;;;;;;;14.50;8.35;;;;;;;5.94;93.79;99656.34;5045147;28;20045;-52
2021/01/20 01:24:42;;;;;;;16.02;8.23;;;;;;;6.02;93.44;99645.81;5044234;28;20338;-54
2021/01/20 01:27:10;;;;;;;12.57;8.38;;;;;;;5.98;93.52;99637.38;5047730;28;20041;-51
2021/01/20 01:29:36;;;;;;;16.17;8.45;;;;;;;5.88;93.92;99644.59;5044536;28;20041;-53
2021/01/20 01:32:03;;;;;;;14.93;8.45;;;;;;;5.83;94.43;99642.44;5045240;28;20044;-55
2021/01/20 01:34:30;;;;;;;14.02;7.82;;;;;;;5.83;94.31;99642.44;5042016;28;20222;-52
2021/01/20 01:36:58;;;;;;;12.15;8.00;;;;;;;5.93;94.52;99641.47;5049895;28;20067;-52
2021/01/20 01:39:25;;;;;;;14.07;6.95;;;;;;;5.93;94.32;99637.00;5043816;28;20060;-52
2021/01/20 01:41:52;;;;;;;14.98;7.70;;;;;;;5.85;94.45;99632.50;5041367;28;20048;-50
2021/01/20 01:44:19;;;;;;;18.95;8.10;;;;;;;5.74;95.26;99632.81;5044229;28;20040;-52
2021/01/20 01:46:46;;;;;;;18.05;8.70;;;;;;;5.70;95.71;99626.16;5047281;28;20388;-52
2021/01/20 01:49:13;;;;;;;14.98;8.32;;;;;;;5.65;95.84;99617.84;5045528;28;20053;-52
2021/01/20 01:51:40;;;;;;;13.70;8.15;;;;;;;5.62;96.42;99610.25;5048601;28;20052;-53
2021/01/20 01:54:09;;;;;;;13.00;7.22;;;;;;;5.66;96.75;99603.63;5048476;28;20519;-53
2021/01/20 01:56:38;;;;;;;12.65;7.63;;;;;;;5.61;96.71;99576.78;5044901;28;20037;-51
2021/01/20 01:59:05;;;;;;;14.63;8.52;;;;;;;5.62;96.93;99607.59;5042008;28;20040;-54
2021/01/20 02:01:31;;;;;;;13.23;6.90;;;;;;;5.71;96.48;99582.78;5041333;28;20042;-51
2021/01/20 02:03:58;;;;;;;14.57;7.30;;;;;;;5.72;96.50;99580.97;5045669;28;20037;-50
2021/01/20 02:06:29;;;;;;;15.18;8.15;;;;;;;5.67;96.63;99570.84;5049545;28;20040;-53
2021/01/20 02:08:55;;;;;;;13.60;7.72;;;;;;;5.63;96.89;99586.25;5038844;28;20038;-52
2021/01/20 02:11:41;;;;;;;12.23;7.10;;;;;;;5.77;96.58;99568.91;5043906;28;20056;-50
2021/01/20 02:14:15;;;;;;;13.10;8.15;;;;;;;5.60;96.99;99561.88;5045128;28;20037;-52
2021/01/20 02:16:46;;;;;;;11.50;7.43;;;;;;;5.66;96.98;99571.84;5046989;28;20041;-50
2021/01/20 02:19:16;;;;;;;11.90;7.05;;;;;;;5.70;97.32;99567.88;5045689;28;20084;-52
2021/01/20 02:21:55;;;;;;;13.57;7.50;;;;;;;5.75;96.91;99562.09;5044321;28;20120;-53
2021/01/20 02:24:27;;;;;;;10.98;7.18;;;;;;;5.75;96.81;99564.75;5040902;28;20230;-52
2021/01/20 02:27:00;;;;;;;10.93;7.18;;;;;;;5.78;96.72;99554.63;5044343;28;20053;-52
2021/01/20 02:29:43;;;;;;;14.05;7.57;;;;;;;5.91;96.31;99558.63;5040623;28;20052;-53
2021/01/20 02:32:11;;;;;;;13.20;7.70;;;;;;;5.92;95.98;99545.22;5045681;28;21686;-53
2021/01/20 02:34:38;;;;;;;10.43;6.72;;;;;;;6.06;95.24;99550.91;5046259;28;20475;-54
2021/01/20 02:37:12;;;;;;;14.43;8.98;;;;;;;6.06;95.27;99543.78;5045391;28;20080;-52
2021/01/20 02:39:40;;;;;;;14.52;6.70;;;;;;;6.06;94.88;99549.09;5045522;28;20040;-50
2021/01/20 02:42:07;;;;;;;12.48;7.20;;;;;;;6.12;94.49;99542.28;5042843;28;20808;-52
2021/01/20 02:44:38;;;;;;;9.70;6.25;;;;;;;6.15;94.78;99537.50;5046999;28;20029;-49
2021/01/20 02:47:07;;;;;;;12.82;6.88;;;;;;;6.20;94.34;99543.13;5044834;28;20041;-49
2021/01/20 02:49:35;;;;;;;16.55;7.30;;;;;;;6.21;94.19;99538.66;5039234;28;20045;-54
2021/01/20 02:52:06;;;;;;;13.35;6.90;;;;;;;6.32;93.56;99524.22;5040109;28;20044;-53
2021/01/20 02:54:33;;;;;;;13.60;7.40;;;;;;;6.34;92.81;99528.38;5048216;28;20045;-52
2021/01/20 02:57:02;;;;;;;9.35;6.22;;;;;;;6.30;93.15;99520.94;5043264;28;20224;-52
2021/01/20 02:59:30;;;;;;;8.55;5.50;;;;;;;6.36;92.83;99522.91;5042906;28;20459;-53
2021/01/20 03:01:59;;;;;;;8.60;5.55;;;;;;;6.44;92.02;99528.19;5044596;28;20100;-52
2021/01/20 03:04:28;;;;;;;11.45;6.45;;;;;;;6.52;91.39;99528.19;5042580;28;20993;-53
2021/01/20 03:06:57;;;;;;;9.48;5.15;;;;;;;6.50;91.18;99524.88;5044469;28;20041;-54
2021/01/20 03:09:23;;;;;;;9.40;5.40;;;;;;;6.46;91.40;99515.59;5038838;28;20068;-53
2021/01/20 03:11:52;;;;;;;9.27;5.18;;;;;;;6.50;91.10;99508.94;5033691;28;20037;-53
2021/01/20 03:14:21;;;;;;;10.95;6.05;;;;;;;6.52;91.14;99503.47;5044508;28;20059;-53
2021/01/20 03:16:47;;;;;;;10.15;5.20;;;;;;;6.59;90.37;99515.09;5041001;28;20124;-53
2021/01/20 03:19:15;;;;;;;11.10;5.57;;;;;;;6.64;89.85;99503.97;5041004;28;20037;-53
2021/01/20 03:21:42;;;;;;;10.98;5.72;;;;;;;6.59;89.97;99507.13;5047686;28;20059;-51
2021/01/20 03:24:10;;;;;;;6.65;4.20;;;;;;;6.72;89.66;99514.56;5046679;28;20155;-50
2021/01/20 03:26:37;;;;;;;7.35;4.50;;;;;;;6.68;89.34;99515.91;5041799;28;20068;-51
2021/01/20 03:29:04;;;;;;;7.65;4.50;;;;;;;6.73;89.32;99508.25;5039448;28;20446;-53
2021/01/20 03:31:30;;;;;;;8.65;5.15;;;;;;;6.74;88.65;99512.56;5045009;28;20038;-53
2021/01/20 03:33:58;;;;;;;11.73;4.38;;;;;;;6.81;88.58;99507.41;5040251;28;20053;-53
2021/01/20 03:36:25;;;;;;;9.02;4.60;;;;;;;6.92;88.17;99506.19;5045586;28;20056;-52
2021/01/20 03:38:54;;;;;;;6.13;3.75;;;;;;;7.09;86.96;99506.94;5039348;28;20057;-51
2021/01/20 03:41:22;;;;;;;7.60;4.22;;;;;;;7.20;86.16;99494.16;5038255;28;20421;-50
2021/01/20 03:43:49;;;;;;;6.05;4.72;;;;;;;7.21;86.06;99502.94;5041526;28;20349;-52
2021/01/20 03:46:16;;;;;;;6.35;3.70;;;;;;;7.21;85.56;99487.81;5039799;28;20033;-50
2021/01/20 03:48:44;;;;;;;6.40;3.30;;;;;;;7.29;85.24;99491.44;5041019;28;20057;-51
2021/01/20 03:51:10;;;;;;;6.78;4.47;;;;;;;7.28;85.63;99471.19;5042861;28;20324;-52
2021/01/20 03:53:37;;;;;;;6.05;4.43;;;;;;;7.30;85.54;99482.47;5045765;28;20131;-51
2021/01/20 03:56:05;;;;;;;7.30;3.70;;;;;;;7.30;85.78;99470.03;5044417;28;20045;-52
2021/01/20 03:58:32;;;;;;;5.80;3.53;;;;;;;7.37;85.39;99464.81;5040036;28;20041;-53
2021/01/20 04:00:59;;;;;;;5.53;3.50;;;;;;;7.32;85.56;99472.50;5044049;28;20233;-52
2021/01/20 04:03:29;;;;;;;5.72;3.67;;;;;;;7.31;85.74;99454.91;5043502;28;20033;-52
2021/01/20 04:05:59;;;;;;;5.18;3.13;;;;;;;7.35;85.73;99458.88;5042902;28;20044;-52
2021/01/20 04:08:26;;;;;;;7.10;3.80;;;;;;;7.35;85.78;99458.88;5039952;28;20044;-53
2021/01/20 04:10:53;;;;;;;6.03;2.85;;;;;;;7.36;85.83;99468.50;5038766;28;20047;-53
2021/01/20 04:13:23;;;;;;;6.70;3.40;;;;;;;7.36;85.67;99444.59;5042863;28;20067;-52
2021/01/20 04:15:50;;;;;;;6.45;3.08;;;;;;;7.26;86.58;99483.81;5041491;28;20037;-50
2021/01/20 04:18:17;;;;;;;6.13;3.05;;;;;;;7.32;86.53;99452.06;5042544;28;20041;-53
2021/01/20 04:20:49;;;;;;;5.57;3.95;;;;;;;7.35;86.17;99448.25;5040719;28;20061;-53
2021/01/20 04:23:15;;;;;;;7.55;3.80;;;;;;;7.32;86.28;99449.41;5045024;28;20064;-54
2021/01/20 04:25:42;;;;;;;6.70;3.65;;;;;;;7.20;87.16;99449.00;5045531;28;20336;-49
2021/01/20 04:28:09;;;;;;;6.78;2.90;;;;;;;7.03;88.69;99450.91;5044319;28;20052;-53
2021/01/20 04:30:36;;;;;;;4.63;3.03;;;;;;;7.11;89.04;99451.88;5043263;28;21940;-51
2021/01/20 04:33:04;;;;;;;3.95;2.85;;;;;;;7.04;89.22;99435.81;5044743;28;20060;-48
2021/01/20 04:35:31;;;;;;;5.18;3.42;;;;;;;7.06;89.04;99439.13;5046165;28;20255;-53
2021/01/20 04:37:58;;;;;;;7.97;4.05;;;;;;;6.98;89.58;99428.53;5044116;28;20356;-51
2021/01/20 04:40:25;;;;;;;6.28;3.42;;;;;;;6.92;89.83;99426.56;5041461;28;20037;-53
2021/01/20 04:42:52;;;;;;;5.65;3.28;;;;;;;6.88;90.26;99424.25;5043186;28;20045;-51
2021/01/20 04:45:19;;;;;;;6.10;3.38;;;;;;;6.78;91.45;99428.97;5046497;28;20033;-51
2021/01/20 04:47:47;;;;;;;5.57;2.80;;;;;;;6.69;92.03;99424.66;5043429;28;20316;-54
2021/01/20 04:50:16;;;;;;;6.68;3.60;;;;;;;6.64;92.61;99427.84;5041130;28;20068;-52
2021/01/20 04:52:46;;;;;;;6.97;3.40;;;;;;;6.51;93.86;99424.94;5039988;28;20048;-52
2021/01/20 04:55:14;;;;;;;4.57;3.10;;;;;;;6.47;94.12;99418.31;5043762;28;20127;-52
2021/01/20 04:57:41;;;;;;;6.28;3.55;;;;;;;6.41;95.03;99426.91;5048862;28;20067;-52
2021/01/20 05:00:09;;;;;;;4.70;3.00;;;;;;;6.34;95.66;99421.50;5042353;28;20123;-54
2021/01/20 05:02:36;;;;;;;7.28;3.83;;;;;;;6.20;96.59;99430.97;5044569;28;20033;-50
2021/01/20 05:05:05;;;;;;;10.93;3.60;;;;;;;6.21;97.03;99424.66;5046578;28;20037;-53
2021/01/20 05:07:33;;;;;;;7.10;3.72;;;;;;;6.18;97.16;99425.81;5045703;28;20133;-54
2021/01/20 05:09:59;;;;;;;6.20;3.50;;;;;;;6.10;97.86;99412.59;5045241;28;20344;-53
2021/01/20 05:12:37;;;;;;;8.45;4.45;;;;;;;6.01;98.42;99406.47;5046060;28;20083;-50
2021/01/20 05:15:06;;;;;;;4.88;3.42;;;;;;;6.04;98.98;99410.63;5045709;28;20060;-54
2021/01/20 05:17:36;;;;;;;4.30;3.30;;;;;;;5.99;99.54;99420.88;5048452;28;20053;-54
2021/01/20 05:20:04;;;;;;;8.18;3.80;;;;;;;6.00;99.82;99422.53;5046904;28;20098;-53
2021/01/20 05:22:31;;;;;;;11.48;3.88;;;;;;;5.92;100.00;99415.38;5043942;28;20321;-51
2021/01/20 05:25:00;;;;;;;7.43;4.22;;;;;;;5.95;100.00;99419.53;5048533;28;20136;-51
2021/01/20 05:27:29;;;;;;;6.03;3.53;;;;;;;5.98;100.00;99403.31;5049439;28;20356;-50
2021/01/20 05:30:06;;;;;;;6.65;3.05;;;;;;;6.02;100.00;99404.63;5044019;28;20425;-53
2021/01/20 05:32:33;;;;;;;8.75;4.00;;;;;;;6.02;99.86;99412.59;5046001;28;20041;-52
2021/01/20 05:35:02;;;;;;;6.70;3.95;;;;;;;5.96;100.00;99403.47;5046021;28;20116;-51
2021/01/20 05:37:29;;;;;;;7.30;3.70;;;;;;;5.92;100.00;99401.31;5050443;28;20325;-53
2021/01/20 05:40:08;;;;;;;5.30;3.25;;;;;;;5.91;100.00;99399.66;5043336;28;20044;-51
2021/01/20 05:42:45;;;;;;;4.53;3.10;;;;;;;5.94;100.00;99400.16;5041237;28;20041;-53
2021/01/20 05:45:15;;;;;;;7.65;3.80;;;;;;;5.91;100.00;99397.00;5048953;28;20041;-54
2021/01/20 05:48:15;;;;;;;7.45;3.45;;;;;;;5.88;100.00;99389.41;5045945;28;20136;-58
2021/01/20 05:50:56;;;;;;;5.78;3.50;;;;;;;5.82;100.00;99389.06;4952719;28;20379;-51
2021/01/20 05:53:22;;;;;;;6.82;4.72;;;;;;;5.78;100.00;99393.03;4950152;29;20079;-52
2021/01/20 05:56:04;;;;;;;6.32;3.17;;;;;;;5.73;100.00;99397.19;5002178;28;20049;-52
2021/01/20 05:58:38;;;;;;;5.75;3.47;;;;;;;5.74;100.00;99389.09;5049668;28;20042;-52
2021/01/20 06:01:07;;;;;;;6.47;3.38;;;;;;;5.68;100.00;99390.59;5044267;28;20041;-52
2021/01/20 06:03:36;;;;;;;6.13;3.65;;;;;;;5.69;100.00;99388.75;5044293;28;20079;-53
2021/01/20 06:06:05;;;;;;;7.07;4.13;;;;;;;5.66;100.00;99387.25;5044164;28;20056;-52
2021/01/20 06:08:33;;;;;;;7.72;4.18;;;;;;;5.77;100.00;99374.66;5047286;28;20049;-49
2021/01/20 06:11:00;;;;;;;8.68;3.80;;;;;;;5.78;100.00;99377.13;5048689;28;20056;-52
2021/01/20 06:13:28;;;;;;;5.65;3.67;;;;;;;5.71;100.00;99377.97;5045345;28;20056;-51
2021/01/20 06:15:57;;;;;;;6.20;3.60;;;;;;;5.65;100.00;99366.25;5046684;28;20242;-52
2021/01/20 06:18:25;;;;;;;6.15;3.80;;;;;;;5.64;100.00;99362.78;5041774;28;20074;-51
2021/01/20 06:20:53;;;;;;;7.57;3.78;;;;;;;5.59;100.00;99358.97;5044012;28;20291;-53
2021/01/20 06:23:25;;;;;;;8.30;4.43;;;;;;;5.68;100.00;99365.91;5042384;28;20044;-53
2021/01/20 06:26:00;;;;;;;5.68;3.30;;;;;;;5.61;100.00;99364.91;5048329;28;20052;-53
2021/01/20 06:28:28;;;;;;;6.68;4.03;;;;;;;5.63;100.00;99350.50;5045698;28;20421;-53
2021/01/20 06:30:56;;;;;;;5.38;3.38;;;;;;;5.62;100.00;99353.34;5039734;28;20037;-53
2021/01/20 06:33:27;;;;;;;7.10;4.22;;;;;;;5.67;100.00;99345.69;5046471;28;20040;-50
2021/01/20 06:35:54;;;;;;;5.45;3.63;;;;;;;5.61;100.00;99341.88;5043144;28;20052;-51
2021/01/20 06:38:36;;;;;;;6.60;3.92;;;;;;;5.61;100.00;99341.88;5045660;28;20040;-52
2021/01/20 06:41:07;;;;;;;8.25;3.83;;;;;;;5.56;100.00;99343.38;5048873;28;20037;-53
2021/01/20 06:43:44;;;;;;;5.78;3.70;;;;;;;5.52;100.00;99343.72;5044489;28;20365;-53
2021/01/20 06:46:19;;;;;;;6.70;3.85;;;;;;;5.52;100.00;99338.44;5045918;28;20036;-54
2021/01/20 06:49:11;;;;;;;5.13;3.00;;;;;;;5.52;100.00;99342.91;5027940;28;20053;-52
2021/01/20 06:51:39;;;;;;;5.68;3.75;;;;;;;5.54;100.00;99340.09;5042492;28;20112;-54
2021/01/20 06:54:15;;;;;;;4.88;2.80;;;;;;;5.60;100.00;99342.06;5044738;28;20486;-52
2021/01/20 06:56:47;;;;;;;5.00;3.00;;;;;;;5.61;100.00;99341.06;5041591;28;20048;-52
2021/01/20 06:59:26;;;;;;;5.53;3.10;;;;;;;5.58;100.00;99336.13;5041436;28;20119;-52
2021/01/20 07:02:12;;;;;;;6.00;4.45;;;;;;;5.57;100.00;99337.09;5043541;28;20375;-54
2021/01/20 07:05:04;;;;;;;4.88;2.92;;;;;;;5.54;99.94;99334.78;5045099;28;20368;-54
2021/01/20 07:08:01;;;;;;;5.80;3.03;;;;;;;5.60;98.91;99345.56;5045343;28;20540;-53
2021/01/20 07:10:31;;;;;;;6.03;3.60;;;;;;;5.58;99.02;99350.19;5034997;28;20052;-52
2021/01/20 07:13:18;;;;;;;5.85;3.13;;;;;;;5.68;98.36;99334.97;5046206;28;20098;-52
2021/01/20 07:15:52;;;;;;;4.68;3.17;;;;;;;5.69;98.04;99338.44;5043827;28;20480;-51
2021/01/20 07:18:22;;;;;;;7.35;3.75;;;;;;;5.82;97.04;99337.91;5044706;28;20338;-52
2021/01/20 07:20:49;;;;;;;4.60;2.83;;;;;;;5.82;96.53;99356.44;5040384;28;20399;-51
2021/01/20 07:23:16;;;;;;;6.30;3.30;;;;;;;5.84;95.64;99351.78;5042732;28;20040;-52
2021/01/20 07:25:51;;;;;;;5.82;2.50;;;;;;;5.86;94.96;99347.19;5027522;28;20421;-54
2021/01/20 07:28:20;;;;;;;4.63;2.95;;;;;;;5.85;94.82;99354.31;5043919;28;20317;-53
2021/01/20 07:30:47;;;;;;;7.57;2.92;;;;;;;5.86;94.29;99345.34;5037732;28;20048;-53
2021/01/20 07:33:19;;;;;;;4.75;2.60;;;;;;;5.83;94.02;99348.34;5038956;28;20099;-52
2021/01/20 07:35:47;;;;;;;6.45;3.83;;;;;;;5.90;93.54;99345.84;5039965;28;20276;-54
2021/01/20 07:38:14;;;;;;;4.07;2.75;;;;;;;5.92;93.00;99337.72;5043083;28;20048;-51
2021/01/20 07:40:42;;;;;;;4.45;2.75;;;;;;;5.88;92.85;99336.41;5041674;28;20037;-52
2021/01/20 07:43:20;;;;;;;4.63;2.92;;;;;;;5.84;92.67;99335.91;5040465;28;20048;-54
2021/01/20 07:45:48;;;;;;;5.90;2.95;;;;;;;5.72;93.78;99326.66;5038484;28;20387;-53
2021/01/20 07:48:14;;;;;;;3.70;2.63;;;;;;;5.74;93.32;99336.09;5041882;28;20040;-55
2021/01/20 07:50:44;;;;;;;6.75;2.88;;;;;;;5.75;93.68;99332.44;5037363;28;20041;-51
2021/01/20 07:53:15;;;;;;;4.75;2.90;;;;;;;5.75;93.88;99332.44;5046191;28;20435;-52
2021/01/20 07:55:43;;;;;;;5.60;2.88;;;;;;;5.79;92.91;99325.81;5038146;28;20052;-53
2021/01/20 07:58:10;;;;;;;4.38;2.72;;;;;;;5.82;92.50;99322.81;5042607;28;20041;-54
2021/01/20 08:00:47;;;;;;;8.52;2.85;;;;;;;5.90;92.00;99323.81;5041088;28;20037;-53
2021/01/20 08:03:15;;;;;;;9.88;3.10;;;;;;;5.82;92.43;99328.13;5043383;28;20057;-52
2021/01/20 08:05:43;;;;;;;7.22;3.60;;;;;;;5.93;90.75;99326.13;5044213;28;20041;-54
2021/01/20 08:08:11;;;;;;;5.78;2.88;;;;;;;5.86;90.61;99325.97;5040340;28;20419;-54
2021/01/20 08:10:39;;;;;;;6.82;3.13;;;;;;;5.80;90.75;99306.28;5040276;28;20041;-53
2021/01/20 08:13:10;;;;;;;5.20;2.67;;;;;;;5.96;88.90;99334.56;5042655;28;20403;-53
2021/01/20 08:15:39;;;;;;;5.07;2.42;;;;;;;5.95;88.84;99326.78;5041162;28;20045;-53
2021/01/20 08:18:07;;;;;;;6.50;2.17;;;;;;;5.99;87.67;99317.53;5040842;28;20179;-52
2021/01/20 08:20:36;;;;;;;4.40;2.40;;;;;;;5.99;87.04;99301.63;5037809;28;20256;-53
2021/01/20 08:23:06;;;;;;;5.57;2.90;;;;;;;5.98;87.63;99310.56;5043339;28;20056;-50
2021/01/20 08:25:33;;;;;;;4.93;3.17;;;;;;;6.03;87.06;99326.78;5042586;28;20323;-51
2021/01/20 08:28:13;;;;;;;5.78;3.00;;;;;;;6.13;85.40;99316.00;5045539;28;20045;-53
2021/01/20 08:30:41;;;;;;;6.70;3.58;;;;;;;6.13;85.38;99314.16;5039882;28;20195;-54
2021/01/20 08:33:07;;;;;;;5.68;2.85;;;;;;;6.11;85.62;99316.19;5040732;28;20992;-52
2021/01/20 08:35:37;;;;;;;4.50;2.80;;;;;;;6.14;84.88;99310.53;5042933;28;20369;-54
2021/01/20 08:38:05;;;;;;;6.40;3.05;;;;;;;6.15;84.69;99298.94;5041643;28;20045;-51
2021/01/20 08:40:33;;;;;;;4.70;2.17;;;;;;;6.20;84.33;99303.72;5042024;28;20041;-52
2021/01/20 08:42:59;;;;;;;6.90;3.13;;;;;;;6.28;83.40;99289.59;5039696;28;20033;-53
2021/01/20 08:45:43;;;;;;;5.68;3.22;;;;;;;6.30;83.33;99298.22;5039221;28;20045;-50
2021/01/20 08:48:10;;;;;;;7.85;4.25;;;;;;;6.29;82.73;99283.28;5038542;28;20029;-53
2021/01/20 08:50:41;;;;;;;6.53;2.88;;;;;;;6.25;82.94;99292.59;5040200;28;20029;-53
2021/01/20 08:53:09;;;;;;;6.30;3.40;;;;;;;6.27;83.04;99274.69;5042703;28;20036;-52
2021/01/20 08:55:38;;;;;;;3.83;2.78;;;;;;;6.32;82.28;99280.28;5039346;28;20052;-54
2021/01/20 08:58:22;;;;;;;5.40;2.90;;;;;;;6.32;82.23;99275.00;5039684;28;20029;-52
2021/01/20 09:00:50;;;;;;;7.13;3.33;;;;;;;6.41;80.89;99286.38;5039193;28;20048;-53
2021/01/20 09:03:18;;;;;;;6.20;3.00;;;;;;;6.36;81.08;99265.69;5038964;28;20124;-53
2021/01/20 09:05:47;;;;;;;7.63;3.17;;;;;;;6.41;81.54;99271.31;5039027;28;20049;-54
2021/01/20 09:08:14;;;;;;;10.68;3.83;;;;;;;6.52;80.18;99265.63;5041339;28;20045;-54
2021/01/20 09:10:42;;;;;;;5.53;2.88;;;;;;;6.46;80.68;99250.38;5043566;28;20041;-52
2021/01/20 09:13:09;;;;;;;5.95;2.63;;;;;;;6.43;80.66;99242.78;5043595;28;20037;-52
2021/01/20 09:15:36;;;;;;;4.50;2.38;;;;;;;6.45;80.06;99254.06;5046431;28;20037;-52
2021/01/20 09:18:06;;;;;;;4.18;2.58;;;;;;;6.46;81.16;99253.03;5043256;28;20044;-50
2021/01/20 09:20:34;;;;;;;4.13;2.63;;;;;;;6.51;80.36;99263.94;5042577;28;20119;-51
2021/01/20 09:23:02;;;;;;;4.97;2.80;;;;;;;6.51;80.34;99258.66;5041743;28;20037;-52
2021/01/20 09:25:30;;;;;;;4.72;2.50;;;;;;;6.54;79.38;99263.59;5041235;28;20067;-52
2021/01/20 09:27:57;;;;;;;5.68;2.83;;;;;;;6.53;79.44;99254.00;5046685;28;20067;-52
2021/01/20 09:30:24;;;;;;;6.47;2.63;;;;;;;6.67;79.32;99270.16;5042488;28;20043;-51
2021/01/20 09:32:51;;;;;;;3.72;2.50;;;;;;;6.75;78.37;99251.53;5042136;28;20046;-53
2021/01/20 09:35:19;;;;;;;4.63;2.70;;;;;;;6.78;78.67;99250.38;5042865;28;20037;-51
2021/01/20 09:37:47;;;;;;;5.32;2.67;;;;;;;6.84;78.45;99257.63;5042869;28;20329;-52
2021/01/20 09:40:16;;;;;;;4.68;2.83;;;;;;;6.91;77.92;99260.41;5041881;28;20044;-52
2021/01/20 09:42:44;;;;;;;4.35;2.50;;;;;;;6.95;76.87;99259.84;5044593;28;20032;-51
2021/01/20 09:45:12;;;;;;;6.70;3.50;;;;;;;6.97;77.71;99259.69;5038202;28;20068;-51
2021/01/20 09:47:41;;;;;;;4.40;2.47;;;;;;;6.98;78.30;99259.50;5041105;28;20055;-51
2021/01/20 09:50:09;;;;;;;5.53;3.38;;;;;;;7.11;77.10;99245.63;5045589;28;20053;-51
2021/01/20 09:52:36;;;;;;;6.88;2.85;;;;;;;7.05;78.08;99254.31;5046154;28;20045;-54
2021/01/20 09:55:04;;;;;;;5.90;3.00;;;;;;;7.23;77.69;99252.16;5043530;28;20157;-53
2021/01/20 09:57:33;;;;;;;7.60;3.67;;;;;;;7.33;77.35;99249.25;5043883;28;20045;-52
2021/01/20 10:00:01;;;;;;;8.55;3.67;;;;;;;7.38;76.91;99244.22;5041683;28;20057;-52
2021/01/20 10:02:31;;;;;;;8.38;2.97;;;;;;;7.34;77.80;99253.56;5043007;28;20029;-54
2021/01/20 10:04:58;;;;;;;6.97;3.38;;;;;;;7.46;77.38;99248.63;5040800;28;20064;-51
2021/01/20 10:07:25;;;;;;;4.72;2.60;;;;;;;7.54;76.06;99245.06;5041146;28;20429;-54
2021/01/20 10:09:52;;;;;;;4.22;2.85;;;;;;;7.47;76.96;99236.16;5037336;28;20069;-49
2021/01/20 10:12:19;;;;;;;8.02;3.22;;;;;;;7.46;76.00;99230.03;5039412;28;20037;-53
2021/01/20 10:14:47;;;;;;;4.93;2.80;;;;;;;7.68;75.96;99225.66;5038573;28;20143;-53
2021/01/20 10:17:14;;;;;;;5.63;3.35;;;;;;;7.63;75.40;99232.53;5042762;28;20357;-53
2021/01/20 10:19:41;;;;;;;4.82;2.20;;;;;;;7.73;75.20;99227.75;5042884;28;20046;-53
2021/01/20 10:22:10;;;;;;;5.38;2.67;;;;;;;7.63;75.10;99229.88;5046319;28;20562;-54
2021/01/20 10:24:37;;;;;;;6.05;2.45;;;;;;;7.75;75.79;99220.41;5042924;28;20068;-54
2021/01/20 10:27:04;;;;;;;4.50;2.50;;;;;;;7.67;75.55;99223.16;5045325;28;20033;-53
2021/01/20 10:29:31;;;;;;;4.30;2.60;;;;;;;7.56;75.38;99204.03;5041162;28;20468;-52
2021/01/20 10:32:00;;;;;;;5.75;2.20;;;;;;;7.70;75.25;99217.50;5044682;28;20052;-52
2021/01/20 10:34:29;;;;;;;5.05;2.95;;;;;;;7.63;75.18;99214.75;5041446;28;20112;-52
2021/01/20 10:36:56;;;;;;;3.65;2.40;;;;;;;7.45;77.30;99212.44;5044374;28;20420;-53
2021/01/20 10:39:25;;;;;;;5.90;3.55;;;;;;;7.38;77.28;99195.59;5039582;28;20329;-52
2021/01/20 10:41:52;;;;;;;6.03;2.35;;;;;;;7.49;76.64;99191.66;5038487;28;20344;-52
2021/01/20 10:44:20;;;;;;;2.70;1.83;;;;;;;7.40;77.44;99183.78;5037167;28;20037;-53
2021/01/20 10:46:47;;;;;;;5.00;2.25;;;;;;;7.33;77.84;99187.31;5039749;28;20052;-53
2021/01/20 10:49:16;;;;;;;5.38;2.25;;;;;;;7.33;77.36;99179.38;5037789;28;20163;-53
2021/01/20 10:51:43;;;;;;;4.72;2.65;;;;;;;7.15;78.06;99177.88;5034160;28;20041;-53
2021/01/20 10:54:10;;;;;;;5.10;2.53;;;;;;;7.28;77.26;99168.47;5038840;28;20099;-49
2021/01/20 10:56:37;;;;;;;4.57;2.33;;;;;;;7.24;80.24;99168.00;5038111;28;20049;-55
2021/01/20 10:59:04;;;;;;;6.10;2.97;;;;;;;7.08;79.21;99155.72;5035197;28;21024;-55
2021/01/20 11:01:31;;;;;;;6.40;3.38;;;;;;;7.16;78.75;99150.34;5041830;28;20045;-50
2021/01/20 11:04:01;;;;;;;5.32;2.65;;;;;;;7.11;78.95;99139.44;5040735;28;20038;-52
2021/01/20 11:06:28;;;;;;;6.85;2.83;;;;;;;7.07;79.12;99127.53;5039599;28;20037;-52
2021/01/20 11:08:56;;;;;;;4.75;2.55;;;;;;;7.14;79.65;99125.78;5039387;28;20045;-54
2021/01/20 11:11:23;;;;;;;5.07;2.50;;;;;;;7.08;79.34;99115.91;5037976;28;20037;-53
2021/01/20 11:13:51;;;;;;;4.18;2.60;;;;;;;7.09;80.30;99114.06;5039688;28;20041;-54
2021/01/20 11:16:18;;;;;;;6.60;2.40;;;;;;;6.95;81.20;99099.81;5041702;28;20436;-54
2021/01/20 11:18:47;;;;;;;5.78;2.53;;;;;;;6.92;81.73;99097.50;5036181;28;20051;-52
2021/01/20 11:21:15;;;;;;;4.07;2.40;;;;;;;7.07;80.35;99104.47;5040978;28;20056;-53
2021/01/20 11:23:43;;;;;;;5.75;2.47;;;;;;;7.24;80.72;99089.19;5041336;28;20049;-53
2021/01/20 11:26:10;;;;;;;3.85;2.50;;;;;;;7.30;78.29;99082.31;5041248;28;20048;-53
2021/01/20 11:28:37;;;;;;;5.28;2.53;;;;;;;7.40;78.33;99077.53;5039019;28;20136;-53
2021/01/20 11:31:04;;;;;;;3.35;2.33;;;;;;;7.55;77.79;99074.84;5034007;28;20434;-53
2021/01/20 11:33:39;;;;;;;3.45;2.30;;;;;;;7.56;76.43;99060.56;5038147;28;20049;-54
2021/01/20 11:36:06;;;;;;;5.53;2.60;;;;;;;7.65;77.84;99053.31;5038349;28;20056;-53
2021/01/20 11:38:34;;;;;;;3.90;2.50;;;;;;;7.83;76.10;99054.75;5039983;28;20160;-53
2021/01/20 11:41:04;;;;;;;3.15;2.50;;;;;;;7.74;75.55;99052.19;5027098;28;20563;-52
2021/01/20 11:43:31;;;;;;;5.10;2.38;;;;;;;7.84;74.67;99051.91;5034756;28;20048;-51
2021/01/20 11:45:58;;;;;;;4.22;2.63;;;;;;;7.79;74.58;99034.88;5038378;28;20048;-51
2021/01/20 11:48:25;;;;;;;3.88;2.20;;;;;;;7.93;75.53;99010.88;5041347;28;20123;-53
2021/01/20 11:50:52;;;;;;;5.30;2.47;;;;;;;7.91;74.47;99002.28;5036672;28;20033;-52
2021/01/20 11:53:22;;;;;;;5.43;3.25;;;;;;;7.92;75.45;98989.81;5035126;28;20045;-54
2021/01/20 11:55:49;;;;;;;3.97;2.20;;;;;;;8.12;74.70;98981.19;5041603;28;20040;-53
2021/01/20 11:58:17;;;;;;;3.05;1.98;;;;;;;8.35;72.75;98994.25;5039925;28;20041;-51
2021/01/20 12:00:43;;;;;;;5.53;2.92;;;;;;;8.34;73.75;98995.28;5040521;28;20368;-53
2021/01/20 12:03:10;;;;;;;4.55;2.20;;;;;;;8.41;72.58;98994.31;5039680;28;20110;-53
2021/01/20 12:05:38;;;;;;;4.25;2.17;;;;;;;8.58;72.37;98994.88;5037971;28;20041;-52
2021/01/20 12:08:05;;;;;;;3.50;2.38;;;;;;;8.59;73.13;98999.19;5037484;28;20433;-52
2021/01/20 12:10:32;;;;;;;4.63;2.40;;;;;;;8.71;72.62;98986.13;5035353;28;20368;-53